createdAt,value
2022-12-22T08:08:09.875Z,97475.00
2022-12-22T08:10:37.907Z,97468.00
2022-12-22T08:13:06.022Z,97469.00
2022-12-22T08:15:34.125Z,97479.00
2022-12-22T08:18:02.194Z,97462.00
2022-12-22T08:20:30.206Z,97465.00
2022-12-22T08:22:58.228Z,97480.00
2022-12-22T08:25:27.621Z,97462.00
2022-12-22T08:27:55.686Z,97476.00
2022-12-22T08:30:23.774Z,97459.00
2022-12-22T08:32:51.833Z,97472.00
2022-12-22T08:35:20.265Z,97473.00
2022-12-22T08:37:48.354Z,97476.00
2022-12-22T08:40:19.125Z,97467.00
2022-12-22T08:42:48.623Z,97470.00
2022-12-22T08:45:16.816Z,97466.00
2022-12-22T08:47:44.911Z,97474.00
2022-12-22T08:50:13.933Z,97471.00
2022-12-22T08:52:41.990Z,97464.00
2022-12-22T08:55:10.678Z,97474.00
2022-12-22T08:57:38.733Z,97456.00
2022-12-22T09:00:10.569Z,97473.00
2022-12-22T09:02:39.177Z,97472.00
2022-12-22T09:05:07.957Z,97453.00
2022-12-22T09:07:36.082Z,97470.00
2022-12-22T09:10:04.438Z,97471.00
2022-12-22T09:12:33.617Z,97469.00
2022-12-22T09:15:01.712Z,97461.00
2022-12-22T09:17:31.100Z,97453.00
2022-12-22T09:19:59.153Z,97457.00
2022-12-22T09:22:28.173Z,97460.00
2022-12-22T09:24:57.051Z,97465.00
2022-12-22T09:27:25.099Z,97456.00
2022-12-22T09:29:53.233Z,97461.00
2022-12-22T09:32:21.327Z,97462.00
2022-12-22T09:34:50.767Z,97458.00
2022-12-22T09:37:18.806Z,97461.00
2022-12-22T09:39:46.993Z,97456.00
2022-12-22T09:42:15.936Z,97460.00
2022-12-22T09:44:46.036Z,97447.00
2022-12-22T09:47:17.694Z,97456.00
2022-12-22T09:49:45.731Z,97456.00
2022-12-22T09:52:23.854Z,97458.00
2022-12-22T09:54:51.932Z,97442.00
2022-12-22T09:57:20.213Z,97457.00
2022-12-22T09:59:48.223Z,97459.00
2022-12-22T10:02:22.711Z,97458.00
2022-12-22T10:04:57.615Z,97448.00
2022-12-22T10:07:29.496Z,97455.00
2022-12-22T10:09:57.583Z,97451.00
2022-12-22T10:12:26.707Z,97440.00
2022-12-22T10:14:55.442Z,97441.00
2022-12-22T10:17:25.564Z,97432.00
2022-12-22T10:19:54.288Z,97431.00
2022-12-22T10:22:34.057Z,97435.00
2022-12-22T10:25:03.128Z,97429.00
2022-12-22T10:27:32.406Z,97427.00
2022-12-22T10:30:20.540Z,97425.00
2022-12-22T10:33:06.074Z,97430.00
2022-12-22T10:35:48.723Z,97429.00
2022-12-22T10:38:22.980Z,97421.00
2022-12-22T10:40:56.564Z,97417.00
2022-12-22T10:43:29.094Z,97424.00
2022-12-22T10:45:57.559Z,97424.00
2022-12-22T10:48:33.424Z,97431.00
2022-12-22T10:51:02.087Z,97430.00
2022-12-22T10:53:46.087Z,97425.00
2022-12-22T10:56:25.160Z,97420.00
2022-12-22T10:58:54.421Z,97422.00
2022-12-22T11:01:27.662Z,97419.00
2022-12-22T11:03:55.856Z,97411.00
2022-12-22T11:06:24.014Z,97420.00
2022-12-22T11:08:53.618Z,97418.00
2022-12-22T11:11:32.616Z,97421.00
2022-12-22T11:14:07.514Z,97412.00
2022-12-22T11:16:38.531Z,97425.00
2022-12-22T11:19:18.305Z,97407.00
2022-12-22T11:21:47.936Z,97417.00
2022-12-22T11:24:24.137Z,97413.00
2022-12-22T11:26:56.717Z,97398.00
2022-12-22T11:29:36.581Z,97397.00
2022-12-22T11:32:13.289Z,97398.00
2022-12-22T11:34:52.087Z,97405.00
2022-12-22T11:37:30.155Z,97404.00
2022-12-22T11:40:01.289Z,97406.00
2022-12-22T11:42:41.834Z,97398.00
2022-12-22T11:45:16.565Z,97408.00
2022-12-22T11:47:47.909Z,97394.00
2022-12-22T11:51:00.896Z,97384.00
2022-12-22T11:53:41.746Z,97389.00
2022-12-22T11:56:19.935Z,97387.00
2022-12-22T11:59:16.671Z,97392.00
2022-12-22T12:02:12.242Z,97390.00
2022-12-22T12:05:08.135Z,97395.00
2022-12-22T12:07:37.933Z,97402.00
2022-12-22T12:10:13.817Z,97386.00
2022-12-22T12:12:49.547Z,97381.00
2022-12-22T12:15:23.810Z,97393.00
2022-12-22T12:18:01.157Z,97389.00
2022-12-22T12:20:34.452Z,97394.00
2022-12-22T12:23:11.245Z,97382.00
2022-12-22T12:25:40.560Z,97395.00
2022-12-22T12:28:16.220Z,97393.00
2022-12-22T12:30:49.790Z,97393.00
2022-12-22T12:33:19.285Z,97397.00
2022-12-22T12:35:52.202Z,97398.00
2022-12-22T12:38:56.838Z,97401.00
2022-12-22T12:41:16.346Z,97410.00
2022-12-22T12:43:45.728Z,97413.00
2022-12-22T12:46:45.692Z,97417.00
2022-12-22T12:49:50.999Z,97420.00
2022-12-22T12:52:19.018Z,97434.00
2022-12-22T12:54:47.697Z,97441.00
2022-12-22T12:57:31.728Z,97452.00
2022-12-22T13:00:01.289Z,97450.00
2022-12-22T13:02:37.840Z,97459.00
2022-12-22T13:05:28.595Z,97455.00
2022-12-22T13:08:23.970Z,97472.00
2022-12-22T13:14:57.337Z,97475.00
2022-12-22T13:17:35.366Z,97484.00
2022-12-22T13:20:05.992Z,97482.00
2022-12-22T13:22:34.112Z,97483.00
2022-12-22T13:25:03.401Z,97509.00
2022-12-22T13:27:31.496Z,97504.00
2022-12-22T13:30:00.007Z,97505.00
2022-12-22T13:32:29.669Z,97521.00
2022-12-22T13:37:54.737Z,97540.00
2022-12-22T13:40:23.436Z,97526.00
2022-12-22T13:42:52.436Z,97533.00
2022-12-22T13:45:32.663Z,97537.00
2022-12-22T13:48:01.694Z,97542.00
2022-12-22T13:50:33.854Z,97551.00
2022-12-22T13:53:01.910Z,97564.00
2022-12-22T13:55:30.847Z,97567.00
2022-12-22T13:58:02.042Z,97563.00
2022-12-22T14:00:30.358Z,97569.00
2022-12-22T14:02:58.560Z,97570.00
2022-12-22T14:05:33.093Z,97570.00
2022-12-22T14:08:02.239Z,97581.00
2022-12-22T14:10:34.559Z,97599.00
2022-12-22T14:13:08.174Z,97591.00
2022-12-22T14:15:36.803Z,97611.00
2022-12-22T14:18:05.356Z,97603.00
2022-12-22T14:20:35.791Z,97616.00
2022-12-22T14:23:07.359Z,97622.00
2022-12-22T14:25:36.238Z,97628.00
2022-12-22T14:28:04.397Z,97631.00
2022-12-22T14:30:38.265Z,97628.00
2022-12-22T14:33:17.939Z,97628.00
2022-12-22T14:35:47.740Z,97609.00
2022-12-22T14:38:20.031Z,97615.00
2022-12-22T14:40:52.624Z,97628.00
2022-12-22T14:43:29.566Z,97632.00
2022-12-22T14:46:06.702Z,97637.00
2022-12-22T14:48:36.326Z,97630.00
2022-12-22T14:51:05.861Z,97642.00
2022-12-22T14:53:40.000Z,97644.00
2022-12-22T14:56:12.509Z,97652.00
2022-12-22T14:58:41.457Z,97659.00
2022-12-22T15:01:15.746Z,97659.00
2022-12-22T15:03:44.192Z,97674.00
2022-12-22T15:06:34.767Z,97678.00
2022-12-22T15:10:04.233Z,97675.00
2022-12-22T15:12:18.115Z,97679.00
2022-12-22T15:14:47.759Z,97687.00
2022-12-22T15:17:21.016Z,97697.00
2022-12-22T15:19:49.087Z,97693.00
2022-12-22T15:22:18.654Z,97701.00
2022-12-22T15:24:47.922Z,97682.00
2022-12-22T15:27:15.936Z,97702.00
2022-12-22T15:29:43.953Z,97699.00
2022-12-22T15:32:12.576Z,97719.00
2022-12-22T15:34:40.692Z,97718.00
2022-12-22T15:37:11.897Z,97708.00
2022-12-22T15:39:41.494Z,97719.00
2022-12-22T15:42:09.595Z,97725.00
2022-12-22T15:44:39.148Z,97734.00
2022-12-22T15:47:07.521Z,97737.00
2022-12-22T15:49:35.578Z,97736.00
2022-12-22T15:52:04.541Z,97747.00
2022-12-22T15:54:33.298Z,97743.00
2022-12-22T15:57:02.973Z,97754.00
2022-12-22T15:59:31.486Z,97749.00
2022-12-22T16:02:01.799Z,97756.00
2022-12-22T16:04:30.478Z,97756.00
2022-12-22T16:06:59.941Z,97750.00
2022-12-22T16:09:31.402Z,97757.00
2022-12-22T16:11:59.513Z,97769.00
2022-12-22T16:14:32.432Z,97777.00
2022-12-22T16:17:03.341Z,97772.00
2022-12-22T16:19:31.492Z,97765.00
2022-12-22T16:21:59.516Z,97766.00
2022-12-22T16:24:34.354Z,97766.00
2022-12-22T16:27:03.859Z,97760.00
2022-12-22T16:29:46.291Z,97769.00
2022-12-22T16:32:35.280Z,97767.00
2022-12-22T16:35:26.748Z,97765.00
2022-12-22T16:40:51.309Z,97765.00
2022-12-22T16:46:23.452Z,97771.00
2022-12-22T16:49:06.681Z,97784.00
2022-12-22T16:51:49.620Z,97773.00
2022-12-22T16:54:37.143Z,97784.00
2022-12-22T16:57:16.682Z,97773.00
2022-12-22T16:59:52.151Z,97786.00
2022-12-22T17:02:35.820Z,97779.00
2022-12-22T17:05:11.153Z,97778.00
2022-12-22T17:07:56.718Z,97784.00
2022-12-22T17:10:35.597Z,97785.00
2022-12-22T17:13:31.948Z,97785.00
2022-12-22T17:16:03.865Z,97790.00
2022-12-22T17:18:52.809Z,97786.00
2022-12-22T17:21:29.328Z,97779.00
2022-12-22T17:24:22.836Z,97793.00
2022-12-22T17:27:04.596Z,97785.00
2022-12-22T17:29:49.975Z,97789.00
2022-12-22T17:32:32.367Z,97793.00
2022-12-22T17:35:14.704Z,97786.00
2022-12-22T17:38:01.742Z,97792.00
2022-12-22T17:40:38.620Z,97779.00
2022-12-22T17:43:13.808Z,97769.00
2022-12-22T17:45:59.751Z,97775.00
2022-12-22T17:48:34.626Z,97773.00
2022-12-22T17:51:13.199Z,97769.00
2022-12-22T17:53:52.134Z,97762.00
2022-12-22T17:56:22.186Z,97765.00
2022-12-22T17:59:10.029Z,97760.00
2022-12-22T18:02:00.812Z,97750.00
2022-12-22T18:04:41.613Z,97762.00
2022-12-22T18:07:24.135Z,97741.00
2022-12-22T18:10:14.514Z,97747.00
2022-12-22T18:12:58.506Z,97748.00
2022-12-22T18:15:43.328Z,97749.00
2022-12-22T18:18:27.860Z,97747.00
2022-12-22T18:21:11.949Z,97737.00
2022-12-22T18:23:51.490Z,97734.00
2022-12-22T18:26:41.107Z,97741.00
2022-12-22T18:29:36.148Z,97738.00
2022-12-22T18:32:27.725Z,97735.00
2022-12-22T18:35:21.241Z,97741.00
2022-12-22T18:38:07.840Z,97733.00
2022-12-22T18:40:49.004Z,97733.00
2022-12-22T18:43:32.199Z,97717.00
2022-12-22T18:46:13.069Z,97735.00
2022-12-22T18:49:03.464Z,97733.00
2022-12-22T18:51:51.558Z,97727.00
2022-12-22T18:54:51.614Z,97722.00
2022-12-22T18:57:33.116Z,97721.00
2022-12-22T19:00:14.055Z,97725.00
2022-12-22T19:02:58.334Z,97718.00
2022-12-22T19:05:53.510Z,97717.00
2022-12-22T19:08:37.842Z,97709.00
2022-12-22T19:11:26.379Z,97704.00
2022-12-22T19:14:24.114Z,97707.00
2022-12-22T19:17:00.144Z,97703.00
2022-12-22T19:19:44.831Z,97707.00
2022-12-22T19:22:44.323Z,97703.00
2022-12-22T19:25:43.160Z,97708.00
2022-12-22T19:28:30.945Z,97696.00
2022-12-22T19:31:13.205Z,97695.00
2022-12-22T19:33:51.448Z,97686.00
2022-12-22T19:36:32.114Z,97678.00
2022-12-22T19:39:26.206Z,97688.00
2022-12-22T19:42:08.451Z,97676.00
2022-12-22T19:44:52.688Z,97667.00
2022-12-22T19:48:08.886Z,97674.00
2022-12-22T19:50:46.866Z,97671.00
2022-12-22T19:53:35.191Z,97676.00
2022-12-22T19:56:18.731Z,97674.00
2022-12-22T19:59:05.126Z,97674.00
2022-12-22T20:01:49.034Z,97662.00
2022-12-22T20:04:40.555Z,97650.00
2022-12-22T20:07:26.294Z,97647.00
2022-12-22T20:10:07.113Z,97654.00
2022-12-22T20:13:05.994Z,97637.00
2022-12-22T20:16:01.637Z,97623.00
2022-12-22T20:18:53.036Z,97627.00
2022-12-22T20:21:38.012Z,97621.00
2022-12-22T20:24:18.813Z,97623.00
2022-12-22T20:26:55.883Z,97612.00
2022-12-22T20:29:28.987Z,97621.00
2022-12-22T20:32:27.600Z,97622.00
2022-12-22T20:35:09.183Z,97614.00
2022-12-22T20:38:00.584Z,97610.00
2022-12-22T20:40:53.409Z,97618.00
2022-12-22T20:43:56.632Z,97617.00
2022-12-22T20:46:37.348Z,97609.00
2022-12-22T20:52:33.551Z,97609.00
2022-12-22T20:55:16.325Z,97614.00
2022-12-22T20:57:52.585Z,97616.00
2022-12-22T21:00:36.121Z,97606.00
2022-12-22T21:03:14.145Z,97607.00
2022-12-22T21:05:50.822Z,97596.00
2022-12-22T21:08:26.143Z,97596.00
2022-12-22T21:11:11.462Z,97598.00
2022-12-22T21:13:55.510Z,97592.00
2022-12-22T21:16:41.202Z,97581.00
2022-12-22T21:19:33.227Z,97579.00
2022-12-22T21:22:11.596Z,97580.00
2022-12-22T21:25:02.448Z,97577.00
2022-12-22T21:27:40.194Z,97572.00
2022-12-22T21:30:29.358Z,97564.00
2022-12-22T21:33:12.203Z,97562.00
2022-12-22T21:35:47.117Z,97564.00
2022-12-22T21:38:48.260Z,97559.00
2022-12-22T21:41:42.493Z,97548.00
2022-12-22T21:44:20.352Z,97555.00
2022-12-22T21:46:58.146Z,97539.00
2022-12-22T21:49:38.158Z,97545.00
2022-12-22T21:52:20.863Z,97539.00
2022-12-22T21:55:16.070Z,97539.00
2022-12-22T21:58:00.166Z,97541.00
2022-12-22T22:00:39.086Z,97539.00
2022-12-22T22:03:35.143Z,97539.00
2022-12-22T22:06:14.100Z,97533.00
2022-12-22T22:08:54.778Z,97517.00
2022-12-22T22:11:59.858Z,97514.00
2022-12-22T22:14:46.198Z,97517.00
2022-12-22T22:17:26.566Z,97518.00
2022-12-22T22:20:06.567Z,97520.00
2022-12-22T22:22:47.784Z,97514.00
2022-12-22T22:25:36.871Z,97500.00
2022-12-22T22:28:06.456Z,97512.00
2022-12-22T22:30:53.948Z,97502.00
2022-12-22T22:33:30.454Z,97499.00
2022-12-22T22:36:15.648Z,97495.00
2022-12-22T22:39:06.239Z,97495.00
2022-12-22T22:41:50.944Z,97487.00
2022-12-22T22:44:31.674Z,97477.00
2022-12-22T22:47:12.900Z,97488.00
2022-12-22T22:49:54.927Z,97483.00
2022-12-22T22:52:42.047Z,97486.00
2022-12-22T22:55:24.633Z,97488.00
2022-12-22T22:58:04.408Z,97477.00
2022-12-22T23:00:52.173Z,97464.00
2022-12-22T23:03:31.900Z,97476.00
2022-12-22T23:06:16.843Z,97470.00
2022-12-22T23:08:57.058Z,97466.00
2022-12-22T23:11:45.139Z,97465.00
2022-12-22T23:14:25.017Z,97467.00
2022-12-22T23:17:00.519Z,97469.00
2022-12-22T23:19:43.501Z,97454.00
2022-12-22T23:22:22.325Z,97443.00
2022-12-22T23:25:18.035Z,97440.00
2022-12-22T23:27:55.331Z,97444.00
2022-12-22T23:30:38.904Z,97441.00
2022-12-22T23:33:23.852Z,97429.00
2022-12-22T23:36:13.356Z,97435.00
2022-12-22T23:39:01.434Z,97414.00
2022-12-22T23:41:48.216Z,97424.00
2022-12-22T23:44:34.713Z,97426.00
2022-12-22T23:47:18.799Z,97414.00
2022-12-22T23:49:53.378Z,97413.00
2022-12-22T23:52:49.127Z,97409.00
2022-12-22T23:55:35.187Z,97409.00
2022-12-22T23:58:20.101Z,97409.00
